Time;durP1;ratioP1;P1;durP2;ratioP2;P2;SDS_P1;SDS_P2;PMS_P1;PMS_P2;Temp;Humidity;BMP_temperature;BMP_pressure;BME280_temperature;BME280_humidity;BME280_pressure;Samples;Min_cycle;Max_cycle;Signal;HPM_P1;HPM_P2
2021/05/30 00:01:12;;;;;;;14.30;11.15;;;;;;;13.80;34.85;102249.94;4917191;28;97299;-71
2021/05/30 00:03:40;;;;;;;14.02;10.50;;;;;;;13.79;34.73;102250.78;4911012;28;98944;-70
2021/05/30 00:06:08;;;;;;;14.65;11.30;;;;;;;13.77;34.91;102256.94;4914465;28;98740;-70
2021/05/30 00:08:36;;;;;;;13.65;10.73;;;;;;;13.77;34.89;102257.81;4917914;28;98108;-71
2021/05/30 00:11:05;;;;;;;11.52;10.30;;;;;;;13.71;34.79;102248.72;4891495;28;97706;-70
2021/05/30 00:13:35;;;;;;;11.88;9.88;;;;;;;13.68;35.01;102248.59;4908567;28;97065;-70
2021/05/30 00:16:02;;;;;;;16.65;11.63;;;;;;;13.64;35.01;102262.75;4883813;28;101247;-72
2021/05/30 00:18:30;;;;;;;14.07;10.20;;;;;;;13.60;35.04;102259.06;4903810;28;96929;-71
2021/05/30 00:20:59;;;;;;;12.93;10.55;;;;;;;13.60;35.14;102263.50;4912101;28;97980;-71
2021/05/30 00:23:27;;;;;;;14.85;11.75;;;;;;;13.58;34.98;102260.78;4896591;28;97938;-71
2021/05/30 00:25:57;;;;;;;16.23;11.35;;;;;;;13.55;35.15;102259.78;4902762;28;99612;-70
2021/05/30 00:28:26;;;;;;;15.60;12.60;;;;;;;13.55;35.13;102263.34;4910865;28;97430;-71
2021/05/30 00:30:54;;;;;;;16.38;12.00;;;;;;;13.53;35.08;102257.03;4909740;28;98488;-70
2021/05/30 00:33:22;;;;;;;15.45;12.13;;;;;;;13.53;35.05;102254.34;4914279;28;97666;-70
2021/05/30 00:35:50;;;;;;;13.73;10.77;;;;;;;13.51;35.22;102256.09;4911225;28;98679;-72
2021/05/30 00:38:19;;;;;;;14.82;11.65;;;;;;;13.51;35.19;102253.44;4918951;28;97465;-73
2021/05/30 00:40:47;;;;;;;15.20;12.35;;;;;;;13.52;34.93;102249.88;4901249;28;97643;-69
2021/05/30 00:43:15;;;;;;;16.42;12.43;;;;;;;13.51;35.06;102253.44;4907053;28;97569;-71
2021/05/30 00:45:43;;;;;;;16.42;12.63;;;;;;;13.47;34.99;102256.84;4916127;28;99262;-72
2021/05/30 00:48:12;;;;;;;15.15;11.93;;;;;;;13.45;35.09;102258.56;4910043;28;97783;-71
2021/05/30 00:50:41;;;;;;;17.88;11.93;;;;;;;13.39;35.27;102263.72;4911246;28;96856;-70
2021/05/30 00:53:10;;;;;;;14.77;11.90;;;;;;;13.41;35.19;102262.00;4889833;28;99575;-71
2021/05/30 00:55:40;;;;;;;16.42;11.57;;;;;;;13.40;35.21;102254.84;4910168;28;100791;-69
2021/05/30 00:58:08;;;;;;;17.15;11.75;;;;;;;13.38;35.23;102256.56;4891891;28;98085;-70
2021/05/30 01:00:36;;;;;;;17.70;13.30;;;;;;;13.39;35.18;102261.03;4912034;28;97314;-70
2021/05/30 01:03:05;;;;;;;18.40;12.30;;;;;;;13.39;35.34;102263.72;4889254;28;99485;-71
2021/05/30 01:05:33;;;;;;;17.88;12.88;;;;;;;13.35;35.17;102255.56;4909407;28;100182;-71
2021/05/30 01:08:01;;;;;;;17.30;12.40;;;;;;;13.31;35.24;102262.56;4906295;28;97790;-71
2021/05/30 01:10:33;;;;;;;20.13;11.65;;;;;;;13.32;35.27;102256.34;4909570;28;96828;-71
2021/05/30 01:13:04;;;;;;;16.40;12.05;;;;;;;13.27;35.28;102262.41;4912304;28;99886;-71
2021/05/30 01:15:33;;;;;;;17.85;12.10;;;;;;;13.26;35.27;102255.25;4912997;28;97639;-70
2021/05/30 01:18:01;;;;;;;16.55;12.40;;;;;;;13.23;35.24;102256.03;4915203;28;96856;-70
2021/05/30 01:20:30;;;;;;;15.00;11.27;;;;;;;13.22;35.34;102254.25;4915123;28;97522;-70
2021/05/30 01:22:58;;;;;;;16.23;11.77;;;;;;;13.18;35.42;102255.88;4910039;28;98608;-72
2021/05/30 01:25:26;;;;;;;16.52;12.93;;;;;;;13.17;35.48;102255.81;4898133;28;99158;-70
2021/05/30 01:27:56;;;;;;;15.25;12.20;;;;;;;13.17;35.53;102258.50;4915024;28;98081;-71
2021/05/30 01:30:25;;;;;;;18.42;12.38;;;;;;;13.15;35.52;102262.88;4903758;28;98324;-71
2021/05/30 01:32:53;;;;;;;17.50;12.80;;;;;;;13.12;35.43;102261.03;4901275;28;100703;-71
2021/05/30 01:35:21;;;;;;;17.10;12.50;;;;;;;13.12;35.38;102257.44;4911879;28;99168;-71
2021/05/30 01:37:51;;;;;;;17.85;11.68;;;;;;;13.12;35.45;102262.78;4915140;28;97296;-70
2021/05/30 01:40:20;;;;;;;14.95;11.85;;;;;;;13.13;35.48;102254.81;4918148;28;97513;-70
2021/05/30 01:42:50;;;;;;;15.93;12.30;;;;;;;13.15;35.38;102265.56;4910568;28;97039;-70
2021/05/30 01:45:21;;;;;;;16.27;12.52;;;;;;;13.10;35.29;102264.50;4911395;28;98741;-71
2021/05/30 01:47:50;;;;;;;18.17;12.27;;;;;;;13.13;35.50;102269.94;4918042;28;98032;-71
2021/05/30 01:50:20;;;;;;;16.50;12.48;;;;;;;13.09;35.50;102273.38;4914203;28;97985;-71
2021/05/30 01:52:49;;;;;;;21.08;12.60;;;;;;;13.07;35.52;102268.00;4928260;28;98678;-71
2021/05/30 01:55:22;;;;;;;18.38;12.65;;;;;;;13.05;35.54;102264.34;4907913;28;98195;-71
2021/05/30 01:57:54;;;;;;;16.63;12.60;;;;;;;13.05;35.61;102269.69;4908223;28;97266;-70
2021/05/30 02:00:24;;;;;;;19.60;13.68;;;;;;;13.04;35.57;102264.28;4906806;28;97738;-71
2021/05/30 02:02:54;;;;;;;18.45;12.88;;;;;;;12.99;35.74;102266.81;4904475;28;99433;-71
2021/05/30 02:05:24;;;;;;;14.65;12.15;;;;;;;12.95;35.67;102272.84;4909507;28;99385;-70
2021/05/30 02:07:53;;;;;;;18.70;13.30;;;;;;;12.94;35.68;102270.13;4904490;28;97261;-70
2021/05/30 02:10:22;;;;;;;16.23;12.20;;;;;;;;;;4910212;28;97788;-71
2021/05/30 02:12:53;;;;;;;29.45;15.15;;;;;;;;;;4908500;28;97174;-71
2021/05/30 02:15:21;;;;;;;17.35;12.57;;;;;;;;;;4907250;28;99699;-71
2021/05/30 02:17:50;;;;;;;17.85;12.27;;;;;;;12.92;35.61;102261.16;4914098;28;96863;-72
2021/05/30 02:20:43;;;;;;;16.58;12.65;;;;;;;12.90;35.86;102252.16;4908291;28;97446;-71
2021/05/30 02:23:11;;;;;;;15.30;12.68;;;;;;;12.85;35.76;102256.44;4898352;28;98969;-71
2021/05/30 02:25:41;;;;;;;16.70;12.77;;;;;;;12.85;35.66;102256.44;4909580;28;97767;-72
2021/05/30 02:28:11;;;;;;;16.33;13.07;;;;;;;12.85;35.63;102259.13;4910062;28;97388;-70
2021/05/30 02:30:39;;;;;;;19.88;13.25;;;;;;;12.82;35.83;102256.34;4910304;28;97441;-70
2021/05/30 02:33:06;;;;;;;17.20;12.50;;;;;;;12.78;35.89;102246.41;4907648;28;97661;-70
2021/05/30 02:35:34;;;;;;;16.13;12.85;;;;;;;12.79;35.80;102246.47;4899948;28;99439;-70
2021/05/30 02:38:03;;;;;;;19.83;12.50;;;;;;;12.78;35.74;102259.78;4915584;28;97891;-71
2021/05/30 02:40:31;;;;;;;16.83;12.07;;;;;;;12.75;35.78;102267.66;4910387;28;97033;-70
2021/05/30 02:42:59;;;;;;;18.98;13.23;;;;;;;12.72;35.89;102265.81;4912413;28;98613;-71
2021/05/30 02:45:28;;;;;;;19.45;13.43;;;;;;;12.68;35.87;102262.94;4912210;28;97775;-72
2021/05/30 02:47:56;;;;;;;18.70;13.23;;;;;;;12.64;36.20;102266.34;4911834;28;97358;-71
2021/05/30 02:50:25;;;;;;;18.20;12.95;;;;;;;12.61;36.08;102272.50;4889873;28;97757;-71
2021/05/30 02:52:52;;;;;;;16.85;12.98;;;;;;;12.58;36.12;102276.84;4912150;28;96984;-71
2021/05/30 02:55:20;;;;;;;21.05;13.80;;;;;;;12.55;36.19;102276.69;4907563;28;97798;-72
2021/05/30 02:57:48;;;;;;;19.10;14.13;;;;;;;12.53;36.23;102273.09;4911030;28;97736;-71
2021/05/30 03:00:17;;;;;;;17.58;13.07;;;;;;;12.50;35.81;102275.63;4911572;28;98127;-71
2021/05/30 03:02:46;;;;;;;14.80;12.18;;;;;;;12.45;36.24;102277.22;4911536;28;99313;-70
2021/05/30 03:05:14;;;;;;;18.38;13.10;;;;;;;12.43;36.19;102281.59;4909073;28;99110;-71
2021/05/30 03:07:42;;;;;;;18.05;13.25;;;;;;;12.41;36.21;102272.63;4913411;28;97157;-74
2021/05/30 03:10:12;;;;;;;18.25;12.20;;;;;;;12.39;36.22;102280.59;4909911;28;96992;-70
2021/05/30 03:12:40;;;;;;;18.17;13.40;;;;;;;12.39;36.23;102280.59;4905156;28;98987;-70
2021/05/30 03:15:09;;;;;;;18.98;13.15;;;;;;;12.35;36.15;102275.06;4912522;28;98408;-71
2021/05/30 03:17:37;;;;;;;17.27;12.65;;;;;;;12.32;36.32;102274.94;4907523;28;96819;-70
2021/05/30 03:20:07;;;;;;;22.02;14.13;;;;;;;12.33;36.20;102276.78;4920201;28;97453;-70
2021/05/30 03:22:35;;;;;;;18.85;13.05;;;;;;;12.32;36.27;102280.28;4907382;28;98567;-72
2021/05/30 03:25:04;;;;;;;20.58;13.52;;;;;;;12.30;36.35;102288.25;4905153;28;100043;-71
2021/05/30 03:27:32;;;;;;;23.08;13.95;;;;;;;12.29;36.24;102283.75;4906686;28;97019;-70
2021/05/30 03:29:59;;;;;;;18.70;13.27;;;;;;;12.29;36.13;102278.41;4912216;28;97380;-71
2021/05/30 03:32:26;;;;;;;18.08;13.32;;;;;;;12.29;36.26;102283.75;4894953;28;99600;-71
2021/05/30 03:34:54;;;;;;;18.95;13.50;;;;;;;12.32;36.15;102282.97;4891913;28;101704;-72
2021/05/30 03:37:22;;;;;;;18.75;13.45;;;;;;;12.29;36.25;102283.75;4916189;28;97508;-71
2021/05/30 03:39:53;;;;;;;18.92;13.57;;;;;;;12.28;36.36;102273.00;4931455;28;97108;-70
2021/05/30 03:42:22;;;;;;;15.98;12.48;;;;;;;12.30;36.30;102280.22;4917597;28;97745;-71
2021/05/30 03:44:50;;;;;;;19.90;14.38;;;;;;;12.30;36.33;102282.00;4917068;28;100421;-69
2021/05/30 03:47:17;;;;;;;18.70;13.73;;;;;;;12.27;36.42;102279.22;4911524;28;97985;-70
2021/05/30 03:49:44;;;;;;;16.35;12.68;;;;;;;12.26;36.56;102278.28;4914580;28;97711;-70
2021/05/30 03:52:12;;;;;;;17.92;13.82;;;;;;;12.27;36.24;102274.78;4907557;28;100105;-70
2021/05/30 03:54:40;;;;;;;17.85;13.35;;;;;;;12.32;36.17;102266.94;4906211;28;98976;-71
2021/05/30 03:57:08;;;;;;;17.15;13.32;;;;;;;12.32;36.32;102266.94;4910507;28;97638;-69
2021/05/30 03:59:36;;;;;;;17.42;12.55;;;;;;;12.33;36.45;102274.13;4911270;28;97473;-69
2021/05/30 04:02:05;;;;;;;16.75;12.98;;;;;;;12.35;36.45;102272.38;4907642;28;99269;-70
2021/05/30 04:04:32;;;;;;;23.55;13.52;;;;;;;12.34;36.32;102270.59;4909847;28;98966;-71
2021/05/30 04:07:00;;;;;;;20.83;13.35;;;;;;;12.36;36.23;102282.22;4910057;28;97186;-70
2021/05/30 04:09:27;;;;;;;19.83;13.63;;;;;;;12.36;36.17;102276.88;4909744;28;98368;-70
2021/05/30 04:11:55;;;;;;;18.60;13.63;;;;;;;12.36;36.42;102271.56;4916914;28;98573;-68
2021/05/30 04:14:23;;;;;;;19.13;14.05;;;;;;;12.36;36.39;102267.13;4915732;28;97662;-69
2021/05/30 04:16:50;;;;;;;21.88;15.25;;;;;;;12.37;36.27;102268.00;4924659;28;98284;-70
2021/05/30 04:19:18;;;;;;;20.70;13.15;;;;;;;12.35;36.47;102259.03;4906708;28;97447;-69
2021/05/30 04:21:45;;;;;;;20.27;14.25;;;;;;;12.32;36.43;102267.84;4915761;28;100682;-70
2021/05/30 04:24:12;;;;;;;19.90;13.60;;;;;;;12.32;36.47;102258.94;4911270;28;97930;-71
2021/05/30 04:26:40;;;;;;;17.08;13.85;;;;;;;12.32;36.47;102261.59;4907475;28;97655;-70
2021/05/30 04:29:08;;;;;;;16.27;12.32;;;;;;;12.33;36.32;102252.75;4914301;28;97572;-70
2021/05/30 04:31:35;;;;;;;18.48;13.40;;;;;;;12.31;36.23;102254.47;4918214;28;97724;-71
2021/05/30 04:34:03;;;;;;;20.20;13.65;;;;;;;12.30;36.47;102252.63;4909361;28;97763;-70
2021/05/30 04:36:30;;;;;;;17.48;13.63;;;;;;;12.28;36.52;102262.34;4899791;28;97404;-71
2021/05/30 04:38:57;;;;;;;21.60;13.20;;;;;;;12.26;36.63;102261.34;4915762;28;96883;-70
2021/05/30 04:41:25;;;;;;;28.13;17.25;;;;;;;12.28;36.45;102268.59;4914191;28;97429;-69
2021/05/30 04:43:52;;;;;;;26.98;17.13;;;;;;;12.29;36.56;102273.06;4916301;28;98294;-68
2021/05/30 04:46:21;;;;;;;21.38;13.63;;;;;;;12.31;36.48;102271.38;4910977;28;96902;-71
2021/05/30 04:48:48;;;;;;;22.70;14.70;;;;;;;12.34;36.61;102265.25;4906083;28;97628;-68
2021/05/30 04:51:15;;;;;;;17.20;13.63;;;;;;;12.37;36.63;102268.00;4904990;28;97982;-72
2021/05/30 04:53:44;;;;;;;20.23;12.43;;;;;;;12.42;36.37;102271.78;4908882;28;97639;-70
2021/05/30 04:56:15;;;;;;;19.27;13.45;;;;;;;12.43;36.63;102265.59;4900060;28;97579;-70
2021/05/30 04:58:42;;;;;;;17.55;12.68;;;;;;;12.46;36.65;102260.34;4905217;28;97631;-71
2021/05/30 05:01:09;;;;;;;20.15;14.38;;;;;;;12.48;36.61;102264.91;4909091;28;98044;-70
2021/05/30 05:03:38;;;;;;;19.95;13.68;;;;;;;12.54;36.49;102266.88;4907202;28;99436;-71
2021/05/30 05:06:05;;;;;;;20.35;13.32;;;;;;;12.57;36.55;102269.66;4903929;28;98144;-70
2021/05/30 05:08:33;;;;;;;18.95;13.18;;;;;;;12.59;36.42;102267.97;4908550;28;97417;-71
2021/05/30 05:11:00;;;;;;;39.50;24.70;;;;;;;12.62;36.49;102273.44;4915455;28;99764;-69
2021/05/30 05:13:28;;;;;;;39.47;23.45;;;;;;;12.64;36.48;102269.03;4911814;28;97767;-69
2021/05/30 05:15:56;;;;;;;22.65;14.80;;;;;;;12.67;36.42;102266.47;4917096;28;96886;-70
2021/05/30 05:18:24;;;;;;;17.02;12.50;;;;;;;12.71;36.58;102265.75;4894111;28;98454;-70
2021/05/30 05:20:53;;;;;;;20.58;14.55;;;;;;;12.73;36.50;102266.72;4912285;28;97988;-70
2021/05/30 05:23:22;;;;;;;19.50;14.10;;;;;;;12.75;36.48;102264.97;4913542;28;97308;-69
2021/05/30 05:25:50;;;;;;;19.30;13.40;;;;;;;12.76;36.58;102262.38;4909721;28;97453;-70
2021/05/30 05:28:18;;;;;;;16.42;12.48;;;;;;;12.82;36.51;102257.25;4916437;28;97283;-70
2021/05/30 05:30:45;;;;;;;18.65;13.07;;;;;;;12.86;36.47;102260.94;4909125;28;98044;-70
2021/05/30 05:33:13;;;;;;;16.48;12.60;;;;;;;12.92;36.46;102262.06;4910236;28;98665;-70
2021/05/30 05:35:40;;;;;;;29.75;18.02;;;;;;;12.96;36.49;102269.34;4914116;28;96909;-70
2021/05/30 05:38:08;;;;;;;22.20;15.13;;;;;;;13.02;36.40;102260.66;4908898;28;97809;-69
2021/05/30 05:40:36;;;;;;;16.42;13.13;;;;;;;13.07;36.27;102269.75;4912010;28;99447;-70
2021/05/30 05:43:04;;;;;;;17.50;12.25;;;;;;;13.12;36.20;102262.78;4913469;28;97711;-70
2021/05/30 05:45:33;;;;;;;19.13;13.10;;;;;;;13.12;36.33;102263.69;4896733;28;96880;-70
2021/05/30 05:48:01;;;;;;;15.88;11.82;;;;;;;13.13;36.15;102267.25;4912312;28;97455;-70
2021/05/30 05:50:29;;;;;;;22.70;14.95;;;;;;;13.17;36.25;102274.53;4902034;28;97990;-70
2021/05/30 05:52:57;;;;;;;19.45;12.00;;;;;;;13.20;36.33;102266.63;4909481;28;99361;-70
2021/05/30 05:55:25;;;;;;;18.27;12.73;;;;;;;13.22;36.10;102264.94;4909313;28;97961;-69
2021/05/30 05:57:53;;;;;;;18.92;12.30;;;;;;;13.26;36.26;102276.63;4884032;28;97643;-70
2021/05/30 06:00:23;;;;;;;19.15;12.55;;;;;;;13.33;36.08;102278.66;4902175;28;99318;-69
2021/05/30 06:02:51;;;;;;;16.05;11.55;;;;;;;13.34;36.01;102275.09;4904731;28;97812;-70
2021/05/30 06:05:20;;;;;;;17.67;11.88;;;;;;;13.36;36.07;102278.75;4909093;28;96975;-69
2021/05/30 06:07:48;;;;;;;17.85;12.52;;;;;;;13.43;36.06;102278.09;4910537;28;97188;-71
2021/05/30 06:10:17;;;;;;;15.75;11.02;;;;;;;13.48;35.92;102273.78;4907057;28;99365;-68
2021/05/30 06:12:45;;;;;;;17.98;11.57;;;;;;;13.54;35.87;102272.25;4896080;28;100580;-70
2021/05/30 06:15:13;;;;;;;16.83;11.77;;;;;;;13.62;35.76;102277.84;4901457;28;97733;-70
2021/05/30 06:17:41;;;;;;;16.33;11.20;;;;;;;13.67;35.84;102282.47;4905902;28;97589;-70
2021/05/30 06:20:09;;;;;;;13.05;11.07;;;;;;;13.79;35.63;102280.22;4913234;28;100102;-70
2021/05/30 06:22:37;;;;;;;14.95;10.55;;;;;;;13.82;35.62;102274.06;4907913;28;97189;-68
2021/05/30 06:25:06;;;;;;;17.98;11.80;;;;;;;13.85;35.66;102272.41;4908309;28;97994;-68
2021/05/30 06:27:34;;;;;;;14.68;11.13;;;;;;;13.87;35.58;102270.69;4916487;28;97747;-69
2021/05/30 06:30:03;;;;;;;16.48;11.05;;;;;;;13.94;35.47;102275.38;4914436;28;97715;-69
2021/05/30 06:32:30;;;;;;;19.80;14.18;;;;;;;13.99;35.35;102275.47;4901302;28;98961;-69
2021/05/30 06:34:58;;;;;;;18.85;14.38;;;;;;;14.05;35.27;102273.00;4904140;28;97969;-70
2021/05/30 06:37:25;;;;;;;16.33;11.15;;;;;;;14.17;35.21;102261.78;4902858;28;97281;-69
2021/05/30 06:39:53;;;;;;;14.68;10.80;;;;;;;14.25;35.11;102269.16;4912562;28;99793;-70
2021/05/30 06:42:20;;;;;;;17.92;10.40;;;;;;;14.37;35.00;102263.25;4900707;28;99040;-70
2021/05/30 06:44:47;;;;;;;14.77;9.77;;;;;;;14.45;34.94;102264.38;4902040;28;97267;-70
2021/05/30 06:47:15;;;;;;;16.40;10.85;;;;;;;14.51;34.87;102273.50;4915591;28;97470;-69
2021/05/30 06:49:43;;;;;;;11.95;9.30;;;;;;;14.58;34.66;102266.56;4911985;28;99535;-69
2021/05/30 06:52:10;;;;;;;12.77;10.27;;;;;;;14.64;34.74;102266.75;4906955;28;97988;-69
2021/05/30 06:54:37;;;;;;;28.83;18.85;;;;;;;14.67;34.76;102269.50;4897334;28;97464;-69
2021/05/30 06:57:06;;;;;;;24.20;16.42;;;;;;;14.75;34.47;102267.97;4900977;28;97699;-69
2021/05/30 06:59:34;;;;;;;11.90;9.15;;;;;;;14.81;34.51;102262.78;4906025;28;97693;-69
2021/05/30 07:02:02;;;;;;;13.65;10.52;;;;;;;14.85;34.33;102275.38;4899440;28;99158;-70
2021/05/30 07:04:30;;;;;;;15.80;9.88;;;;;;;14.88;34.35;102281.72;4900315;28;97831;-69
2021/05/30 07:06:58;;;;;;;13.93;11.18;;;;;;;14.91;34.29;102271.13;4902637;28;97888;-69
2021/05/30 07:09:25;;;;;;;13.88;9.60;;;;;;;14.92;34.64;102272.00;4887936;28;98388;-70
2021/05/30 07:11:52;;;;;;;15.30;10.23;;;;;;;14.93;34.36;102268.47;4903747;28;97883;-70
2021/05/30 07:14:20;;;;;;;14.05;10.05;;;;;;;14.95;34.33;102269.41;4903193;28;97754;-69
2021/05/30 07:16:47;;;;;;;13.82;9.98;;;;;;;15.00;34.25;102273.13;4904221;28;97520;-69
2021/05/30 07:19:15;;;;;;;15.63;10.90;;;;;;;15.02;34.65;102275.00;4904411;28;97947;-70
2021/05/30 07:21:43;;;;;;;12.23;9.55;;;;;;;15.02;34.43;102268.72;4909391;28;99384;-70
2021/05/30 07:24:11;;;;;;;13.48;9.23;;;;;;;15.09;34.32;102276.03;4912518;28;96790;-70
2021/05/30 07:26:40;;;;;;;13.48;10.02;;;;;;;15.14;34.32;102272.63;4904263;28;98214;-70
2021/05/30 07:29:07;;;;;;;11.73;9.70;;;;;;;15.24;34.37;102279.13;4922705;28;97968;-71
2021/05/30 07:31:35;;;;;;;22.27;15.30;;;;;;;15.37;34.10;102270.56;4922426;28;99204;-71
2021/05/30 07:34:03;;;;;;;26.80;16.88;;;;;;;15.39;34.17;102275.97;4910738;28;97388;-70
2021/05/30 07:36:31;;;;;;;15.57;11.18;;;;;;;15.47;34.11;102277.97;4906054;28;97082;-70
2021/05/30 07:39:00;;;;;;;14.07;11.48;;;;;;;15.55;34.04;102278.16;4889072;28;97720;-70
2021/05/30 07:41:27;;;;;;;11.80;9.63;;;;;;;15.61;33.73;102283.69;4888319;28;98565;-70
2021/05/30 07:43:54;;;;;;;29.15;22.00;;;;;;;15.63;33.67;102285.50;4888721;28;97805;-71
2021/05/30 07:46:22;;;;;;;14.88;12.70;;;;;;;15.66;33.94;102282.00;4904548;28;98047;-70
2021/05/30 07:48:49;;;;;;;8.77;7.88;;;;;;;15.71;33.41;102283.94;4902693;28;98158;-71
2021/05/30 07:51:17;;;;;;;9.55;7.00;;;;;;;15.78;33.28;102283.19;4902951;28;97006;-71
2021/05/30 07:53:44;;;;;;;10.55;7.25;;;;;;;15.85;33.46;102287.84;4902487;28;98586;-71
2021/05/30 07:56:12;;;;;;;12.88;8.48;;;;;;;15.99;33.31;102283.72;4903774;28;97270;-70
2021/05/30 07:58:40;;;;;;;25.42;16.60;;;;;;;16.09;32.68;102285.75;4903536;28;100813;-70
2021/05/30 08:01:08;;;;;;;12.43;9.15;;;;;;;16.18;32.67;102284.16;4903564;28;98140;-69
2021/05/30 08:03:35;;;;;;;9.10;8.20;;;;;;;16.20;33.05;102282.38;4920082;28;97688;-70
2021/05/30 08:06:03;;;;;;;9.07;7.68;;;;;;;16.30;32.79;102285.31;4902738;28;97514;-69
2021/05/30 08:08:31;;;;;;;8.45;6.78;;;;;;;16.33;32.72;102271.03;4901293;28;97751;-69
2021/05/30 08:10:59;;;;;;;9.88;8.15;;;;;;;16.42;32.76;102272.13;4912706;28;99420;-71
2021/05/30 08:13:28;;;;;;;9.55;8.50;;;;;;;16.50;32.28;102269.59;4901367;28;97524;-69
2021/05/30 08:15:55;;;;;;;8.05;7.25;;;;;;;16.55;32.31;102273.28;4920099;28;98039;-69
2021/05/30 08:18:23;;;;;;;6.05;5.55;;;;;;;16.62;32.19;102264.47;4903152;28;98445;-70
2021/05/30 08:20:50;;;;;;;8.10;5.38;;;;;;;16.61;32.08;102273.41;4903473;28;99519;-69
2021/05/30 08:23:18;;;;;;;9.23;6.10;;;;;;;16.64;32.09;102268.09;4896822;28;99620;-70
2021/05/30 08:25:45;;;;;;;6.57;5.30;;;;;;;16.70;32.04;102268.22;4908356;28;97400;-70
2021/05/30 08:28:12;;;;;;;5.88;4.70;;;;;;;16.64;31.63;102262.72;4913476;28;97842;-70
2021/05/30 08:30:41;;;;;;;5.72;4.63;;;;;;;16.66;31.94;102269.03;4898345;28;98628;-71
2021/05/30 08:33:08;;;;;;;5.25;4.70;;;;;;;16.70;31.77;102262.84;4913216;28;97787;-69
2021/05/30 08:35:36;;;;;;;5.47;4.68;;;;;;;16.71;31.50;102267.38;4899145;28;97099;-71
2021/05/30 08:38:18;;;;;;;6.63;5.85;;;;;;;16.74;31.34;102264.75;4895618;28;100798;-70
2021/05/30 08:40:56;;;;;;;7.78;5.70;;;;;;;16.77;31.52;102260.34;4904119;28;96979;-71
2021/05/30 08:43:23;;;;;;;10.20;8.88;;;;;;;16.85;31.40;102261.38;4907665;28;97496;-71
2021/05/30 08:45:51;;;;;;;5.63;4.45;;;;;;;16.84;31.33;102258.66;4903934;28;97750;-70
2021/05/30 08:48:19;;;;;;;4.50;4.10;;;;;;;16.87;31.40;102265.00;4904457;28;100300;-70
2021/05/30 08:51:02;;;;;;;4.40;4.10;;;;;;;17.06;31.14;102272.53;4900424;28;100789;-70
2021/05/30 08:53:29;;;;;;;7.50;4.40;;;;;;;17.11;30.87;102261.84;4910643;28;97658;-70
2021/05/30 08:55:57;;;;;;;5.25;3.60;;;;;;;17.15;30.83;102266.41;4898254;28;97987;-70
2021/05/30 08:58:33;;;;;;;4.82;3.58;;;;;;;17.19;29.94;102262.91;4901359;28;97701;-70
2021/05/30 09:01:11;;;;;;;4.65;3.95;;;;;;;17.27;29.98;102263.97;4913244;28;100762;-69
2021/05/30 09:03:53;;;;;;;4.72;3.78;;;;;;;17.33;29.32;102252.38;4901978;28;98077;-70
2021/05/30 09:06:21;;;;;;;7.38;6.72;;;;;;;17.37;30.12;102255.13;4895158;28;97113;-70
2021/05/30 09:08:52;;;;;;;13.85;12.45;;;;;;;17.45;29.95;102261.59;4902936;28;98995;-70
2021/05/30 09:11:40;;;;;;;5.50;4.90;;;;;;;17.53;28.77;102256.34;4905266;28;100585;-71
2021/05/30 09:14:13;;;;;;;4.53;4.18;;;;;;;17.50;29.58;102258.97;4898467;28;96910;-71
2021/05/30 09:16:59;;;;;;;5.45;4.32;;;;;;;17.51;29.02;102259.00;4907874;28;97733;-71
2021/05/30 09:19:35;;;;;;;5.07;4.63;;;;;;;17.57;27.92;102255.50;4888074;28;100288;-70
2021/05/30 09:22:21;;;;;;;4.20;3.90;;;;;;;17.59;27.34;102256.41;4907931;28;99242;-70
2021/05/30 09:25:06;;;;;;;4.15;3.85;;;;;;;17.67;28.51;102250.28;4904053;28;97122;-71
2021/05/30 09:27:34;;;;;;;4.70;3.35;;;;;;;17.73;29.40;102262.94;4905510;28;97386;-70
2021/05/30 09:30:16;;;;;;;3.70;3.42;;;;;;;17.83;28.40;102265.78;4904585;28;97653;-70
2021/05/30 09:33:05;;;;;;;3.70;3.20;;;;;;;17.92;28.06;102255.16;4880984;28;97245;-71
2021/05/30 09:35:52;;;;;;;3.80;3.50;;;;;;;18.02;27.82;102261.59;4899154;28;99020;-71
2021/05/30 09:38:32;;;;;;;5.40;3.50;;;;;;;18.07;27.45;102256.28;4916366;28;97676;-71
2021/05/30 09:41:01;;;;;;;3.80;3.50;;;;;;;18.17;28.39;102250.13;4901820;28;98053;-69
2021/05/30 09:43:31;;;;;;;3.92;3.45;;;;;;;18.24;28.13;102252.03;4897744;28;99322;-70
2021/05/30 09:46:17;;;;;;;3.80;3.50;;;;;;;18.32;27.40;102250.31;4900651;28;97303;-70
2021/05/30 09:48:57;;;;;;;3.50;3.20;;;;;;;18.36;26.84;102252.16;4900677;28;97281;-70
2021/05/30 09:51:30;;;;;;;3.47;3.20;;;;;;;18.38;27.94;102255.78;4897611;28;100581;-69
2021/05/30 09:54:01;;;;;;;5.13;3.90;;;;;;;18.44;27.72;102247.78;4902516;28;97599;-69
2021/05/30 09:56:40;;;;;;;3.95;3.63;;;;;;;18.48;27.25;102253.22;4882014;28;97251;-69
2021/05/30 09:59:09;;;;;;;5.28;4.03;;;;;;;18.49;27.60;102256.81;4894581;28;98058;-69
2021/05/30 10:01:55;;;;;;;4.18;3.88;;;;;;;18.49;27.06;102246.97;4908833;28;98832;-70
2021/05/30 10:04:25;;;;;;;6.22;3.80;;;;;;;18.56;27.98;102247.91;4919285;28;98389;-71
2021/05/30 10:06:54;;;;;;;4.20;3.80;;;;;;;18.67;27.42;102248.94;4901161;28;96958;-70
2021/05/30 10:09:21;;;;;;;4.85;4.45;;;;;;;18.78;27.38;102250.00;4903965;28;98182;-70
2021/05/30 10:11:48;;;;;;;4.63;4.32;;;;;;;18.86;27.41;102245.59;4897506;28;99250;-71
2021/05/30 10:14:16;;;;;;;4.13;3.75;;;;;;;18.89;27.10;102241.13;4901517;28;98208;-69
2021/05/30 10:16:44;;;;;;;4.50;4.10;;;;;;;18.79;27.34;102243.69;4901898;28;97400;-70
2021/05/30 10:19:14;;;;;;;4.63;4.22;;;;;;;18.77;27.49;102241.00;4899000;28;98008;-70
2021/05/30 10:21:48;;;;;;;6.07;4.07;;;;;;;18.80;27.48;102237.44;4900212;28;97636;-69
2021/05/30 10:24:16;;;;;;;4.10;3.75;;;;;;;18.83;27.56;102238.38;4920688;28;100286;-69
2021/05/30 10:26:46;;;;;;;4.65;3.75;;;;;;;18.87;27.57;102237.53;4900464;28;96666;-70
2021/05/30 10:29:16;;;;;;;4.57;3.95;;;;;;;18.89;27.20;102235.75;4899723;28;97169;-70
2021/05/30 10:31:46;;;;;;;11.18;9.27;;;;;;;18.90;27.59;102240.25;4882263;28;98526;-69
2021/05/30 10:34:17;;;;;;;7.05;5.90;;;;;;;18.92;27.28;102240.25;4881385;28;100680;-69
2021/05/30 10:37:23;;;;;;;5.13;3.80;;;;;;;18.98;26.39;102237.63;4897801;28;97269;-70
2021/05/30 10:39:52;;;;;;;5.38;4.63;;;;;;;19.06;27.31;102238.59;4899753;28;98264;-70
2021/05/30 10:42:22;;;;;;;4.78;4.10;;;;;;;19.13;27.48;102239.56;4897822;28;98547;-70
2021/05/30 10:44:55;;;;;;;10.15;9.15;;;;;;;19.21;27.43;102229.75;4898877;28;100592;-71
2021/05/30 10:47:56;;;;;;;7.30;6.57;;;;;;;19.31;25.67;102228.94;4900117;28;98062;-71
2021/05/30 10:50:24;;;;;;;5.18;4.78;;;;;;;19.43;27.22;102223.63;4902389;28;97826;-70
2021/05/30 10:52:53;;;;;;;4.80;4.38;;;;;;;19.50;26.67;102225.50;4898957;28;99463;-71
2021/05/30 10:55:27;;;;;;;4.30;3.97;;;;;;;19.54;26.60;102222.81;4896574;28;98697;-71
2021/05/30 10:57:55;;;;;;;4.82;4.35;;;;;;;19.59;26.67;102223.75;4895146;28;98037;-70
2021/05/30 11:00:34;;;;;;;4.20;3.85;;;;;;;19.70;26.41;102234.66;4896345;28;97460;-71
2021/05/30 11:03:10;;;;;;;5.28;4.25;;;;;;;19.71;26.91;102226.56;4901674;28;99132;-68
2021/05/30 11:05:46;;;;;;;4.57;4.28;;;;;;;19.77;25.56;102220.28;4901203;28;100133;-70
2021/05/30 11:08:56;;;;;;;5.22;4.30;;;;;;;19.83;25.84;102215.81;4897253;28;98024;-68
2021/05/30 11:11:25;;;;;;;5.43;4.25;;;;;;;19.89;26.54;102221.25;4901711;28;97585;-68
2021/05/30 11:13:54;;;;;;;4.10;3.80;;;;;;;19.94;26.54;102202.38;4884508;28;97761;-68
2021/05/30 11:16:23;;;;;;;4.13;3.80;;;;;;;20.03;26.57;102217.75;4897827;28;99192;-69
2021/05/30 11:18:58;;;;;;;4.75;4.25;;;;;;;20.10;26.09;102219.59;4907280;28;97060;-69
2021/05/30 11:21:28;;;;;;;3.92;3.60;;;;;;;20.14;26.34;102210.59;4899121;28;96865;-71
2021/05/30 11:23:57;;;;;;;4.35;4.03;;;;;;;20.21;26.53;102207.03;4901016;28;100412;-70
2021/05/30 11:26:25;;;;;;;5.53;5.00;;;;;;;20.25;26.30;102209.72;4899957;28;98403;-72